This is the latest recevied weather packets stored in our database for station/object W0AKO. If no packets are shown the sender has not sent any weather packets the latest 1 day(s).
| Time | Temp. | Humidity | Pressure | Rain* | Wind** | Luminosity | Snow |
|---|---|---|---|---|---|---|---|
| 1777991160 | 16.67° C | 10% | 1013.1 hPa | 0 mm | 0 m/s | 141 W/m² | - |
| 1777990857 | 15.56° C | 10% | 1013.3 hPa | 0 mm | 0 m/s | 131 W/m² | - |
| 1777990554 | 15° C | 10% | 1013.4 hPa | 0 mm | 0.45 m/s, 88° | 121 W/m² | - |
| 1777990251 | 15° C | 10% | 1013.3 hPa | 0 mm | 0.89 m/s, 87° | 113 W/m² | - |
| 1777989947 | 15° C | 10% | 1013.1 hPa | 0 mm | 0.45 m/s, 166° | 103 W/m² | - |
| 1777989644 | 15° C | 10% | 1013.2 hPa | 0 mm | 0 m/s | 101 W/m² | - |
| 1777989341 | 14.44° C | 10% | 1013.1 hPa | 0 mm | 0 m/s | 94 W/m² | - |
| 1777989037 | 13.33° C | 10% | 1013.1 hPa | 0 mm | 0 m/s | 86 W/m² | - |
| 1777988733 | 15° C | 10% | 1013.1 hPa | 0 mm | 0 m/s | 88 W/m² | - |
| 1777988430 | 14.44° C | 10% | 1012.9 hPa | 0 mm | 0 m/s | 75 W/m² | - |
| 1777988127 | 13.33° C | 10% | 1012.9 hPa | 0 mm | 0 m/s | 53 W/m² | - |
| 1777987832 | 12.78° C | 10% | 1012.9 hPa | 0 mm | 0.45 m/s, 144° | 47 W/m² | - |
| 1777987520 | 12.22° C | 10% | 1013 hPa | 0 mm | 0 m/s | 35 W/m² | - |
| 1777987218 | 12.22° C | 10% | 1013 hPa | 0 mm | 0.45 m/s, 136° | 23 W/m² | - |
| 1777986914 | 12.22° C | 10% | 1012.8 hPa | 0 mm | 0.45 m/s, 151° | 21 W/m² | - |
| 1777986612 | 12.22° C | 10% | 1012.9 hPa | 0 mm | 1.34 m/s, 148° | 19 W/m² | - |
| 1777986310 | 11.67° C | 10% | 1012.9 hPa | 0 mm | 1.34 m/s, 118° | 16 W/m² | - |
| 1777986008 | 11.67° C | 10% | 1012.7 hPa | 0 mm | 1.79 m/s, 107° | 13 W/m² | - |
| 1777985704 | 11.67° C | 10% | 1012.7 hPa | 0 mm | 0 m/s | 11 W/m² | - |
| 1777985401 | 11.67° C | 10% | 1012.7 hPa | 0 mm | 0.89 m/s, 147° | 8 W/m² | - |
| 1777985098 | 11.67° C | 10% | 1012.6 hPa | 0 mm | 0.45 m/s, 152° | 5 W/m² | - |
| 1777984794 | 11.67° C | 10% | 1012.5 hPa | 0 mm | 1.34 m/s, 119° | 4 W/m² | - |
| 1777984490 | 11.67° C | 10% | 1012.7 hPa | 0 mm | 0.45 m/s, 166° | 1 W/m² | - |
| 1777984186 | 11.67° C | 10% | 1012.6 hPa | 0 mm | 0.45 m/s, 184° | 0 W/m² | - |
| 1777983884 | 11.67° C | 10% | 1012.6 hPa | 0 mm | 0 m/s | 0 W/m² | - |
* Rain latest hour (hover to see other rain measurements)
** Current wind speed in m/s (hover to see current wind gust speed)